createdAt,value
2022-10-24T00:01:15.724Z,100018.83
2022-10-24T00:03:46.626Z,100018.52
2022-10-24T00:06:18.366Z,100011.50
2022-10-24T00:08:49.999Z,100012.22
2022-10-24T00:11:24.478Z,100015.20
2022-10-24T00:13:56.769Z,100017.93
2022-10-24T00:16:28.271Z,100020.62
2022-10-24T00:18:59.199Z,100017.25
2022-10-24T00:21:30.343Z,100024.83
2022-10-24T00:24:00.995Z,100030.04
2022-10-24T00:26:31.821Z,100034.50
2022-10-24T00:29:02.534Z,100034.92
2022-10-24T00:31:33.234Z,100040.40
2022-10-24T00:34:04.692Z,100039.48
2022-10-24T00:36:35.473Z,100046.65
2022-10-24T00:39:06.706Z,100037.01
2022-10-24T00:41:42.012Z,100031.67
2022-10-24T00:44:22.980Z,100035.30
2022-10-24T00:46:58.001Z,100028.41
2022-10-24T00:49:33.130Z,100030.34
2022-10-24T00:52:09.142Z,100027.00
2022-10-24T00:54:41.217Z,100022.77
2022-10-24T00:57:16.547Z,100020.83
2022-10-24T00:59:50.686Z,100023.05
2022-10-24T01:02:22.418Z,100027.48
2022-10-24T01:04:55.344Z,100029.92
2022-10-24T01:07:38.327Z,100032.10
2022-10-24T01:13:16.144Z,100029.89
2022-10-24T01:15:52.481Z,100020.05
2022-10-24T01:18:29.428Z,100014.51
2022-10-24T01:21:25.039Z,100011.31
2022-10-24T01:24:33.431Z,100011.81
2022-10-24T01:27:48.745Z,100012.73
2022-10-24T01:30:20.642Z,100027.91
2022-10-24T01:33:00.752Z,100027.25
2022-10-24T01:35:42.617Z,100024.14
2022-10-24T01:38:19.980Z,100022.17
2022-10-24T01:40:55.870Z,100020.32
2022-10-24T01:43:32.803Z,100015.89
2022-10-24T01:46:09.819Z,100007.86
2022-10-24T01:48:46.182Z,99993.09
2022-10-24T01:51:20.652Z,99989.45
2022-10-24T01:53:52.487Z,99993.25
2022-10-24T01:56:25.086Z,99993.07
2022-10-24T01:59:05.248Z,99993.17
2022-10-24T02:01:38.540Z,99995.55
2022-10-24T02:04:13.012Z,99992.98
2022-10-24T02:06:45.092Z,99987.86
2022-10-24T02:09:20.158Z,99984.70
2022-10-24T02:11:52.899Z,99986.38
2022-10-24T02:14:31.177Z,99986.02
2022-10-24T02:17:03.284Z,99984.33
2022-10-24T02:19:35.019Z,99985.35
2022-10-24T02:22:18.459Z,99989.05
2022-10-24T02:24:55.265Z,99986.95
2022-10-24T02:27:34.810Z,99978.01
2022-10-24T02:30:10.141Z,99972.82
2022-10-24T02:32:44.100Z,99967.52
2022-10-24T02:35:18.433Z,99958.78
2022-10-24T02:37:54.111Z,99957.02
2022-10-24T02:40:25.174Z,99952.52
2022-10-24T02:42:59.424Z,99950.31
2022-10-24T02:45:31.769Z,99946.27
2022-10-24T02:48:08.171Z,99947.54
2022-10-24T02:50:41.646Z,99945.48
2022-10-24T02:53:16.568Z,99953.45
2022-10-24T02:55:47.458Z,99951.08
2022-10-24T02:58:18.244Z,99952.70
2022-10-24T03:00:48.865Z,99955.51
2022-10-24T03:03:19.848Z,99949.59
2022-10-24T03:05:50.640Z,99959.77
2022-10-24T03:08:21.308Z,99961.42
2022-10-24T03:10:51.879Z,99961.02
2022-10-24T03:13:22.579Z,99964.19
2022-10-24T03:15:53.501Z,99968.13
2022-10-24T03:18:24.404Z,99970.94
2022-10-24T03:20:55.140Z,99978.98
2022-10-24T03:23:28.662Z,99975.30
2022-10-24T03:26:00.247Z,99980.95
2022-10-24T03:28:31.068Z,99980.50
2022-10-24T03:31:01.896Z,99981.05
2022-10-24T03:33:32.506Z,99981.22
2022-10-24T03:36:03.087Z,99979.12
2022-10-24T03:38:33.939Z,99981.84
2022-10-24T03:41:05.250Z,99975.83
2022-10-24T03:43:36.103Z,99973.20
2022-10-24T03:46:07.016Z,99979.74
2022-10-24T03:48:37.761Z,99982.62
2022-10-24T03:51:08.715Z,99987.59
2022-10-24T03:53:39.481Z,99982.38
2022-10-24T03:56:10.818Z,99982.17
2022-10-24T03:58:41.524Z,99984.88
2022-10-24T04:01:17.423Z,99992.36
2022-10-24T04:03:48.635Z,99990.11
2022-10-24T04:06:19.369Z,99989.27
2022-10-24T04:08:50.051Z,99997.40
2022-10-24T04:11:20.708Z,99991.44
2022-10-24T04:13:52.309Z,99991.21
2022-10-24T04:16:24.097Z,99984.48
2022-10-24T04:18:54.868Z,99984.86
2022-10-24T04:21:25.573Z,99981.23
2022-10-24T04:23:56.294Z,99987.48
2022-10-24T04:26:27.425Z,99988.81
2022-10-24T04:28:58.104Z,99988.16
2022-10-24T04:31:28.776Z,99993.20
2022-10-24T04:34:00.029Z,99996.09
2022-10-24T04:36:30.662Z,100000.07
2022-10-24T04:41:37.051Z,100004.08
2022-10-24T04:44:08.001Z,100001.09
2022-10-24T04:46:38.552Z,99998.42
2022-10-24T04:49:10.026Z,99993.28
2022-10-24T04:51:40.618Z,99999.10
2022-10-24T04:54:11.517Z,99989.92
2022-10-24T04:56:42.320Z,99995.28
2022-10-24T04:59:13.247Z,99994.24
2022-10-24T05:01:44.314Z,99987.35
2022-10-24T05:04:15.340Z,99982.62
2022-10-24T05:06:47.159Z,99990.88
2022-10-24T05:09:17.920Z,99991.23
2022-10-24T05:11:48.632Z,99991.94
2022-10-24T05:14:19.424Z,99999.52
2022-10-24T05:16:50.208Z,99999.27
2022-10-24T05:19:20.942Z,99997.07
2022-10-24T05:21:51.766Z,100006.70
2022-10-24T05:24:22.960Z,100006.75
2022-10-24T05:26:53.567Z,100005.55
2022-10-24T05:29:24.278Z,100009.50
2022-10-24T05:31:54.983Z,100014.61
2022-10-24T05:34:26.514Z,100002.50
2022-10-24T05:36:57.267Z,99998.70
2022-10-24T05:39:28.044Z,99991.80
2022-10-24T05:41:58.616Z,99986.16
2022-10-24T05:44:29.521Z,99988.23
2022-10-24T05:47:00.155Z,99986.00
2022-10-24T05:49:30.793Z,99984.65
2022-10-24T05:52:01.748Z,99996.29
2022-10-24T05:54:42.599Z,100006.41
2022-10-24T05:57:23.300Z,100012.18
2022-10-24T05:59:54.062Z,100011.06
2022-10-24T06:02:24.791Z,100015.45
2022-10-24T06:04:57.093Z,100013.58
2022-10-24T06:07:27.767Z,100017.73
2022-10-24T06:09:58.724Z,100016.27
2022-10-24T06:12:29.889Z,100016.36
2022-10-24T06:15:01.575Z,100011.67
2022-10-24T06:17:32.808Z,100005.95
2022-10-24T06:20:03.439Z,100007.98
2022-10-24T06:22:42.267Z,100016.92
2022-10-24T06:25:14.058Z,100019.83
2022-10-24T06:27:45.082Z,100014.95
2022-10-24T06:30:15.903Z,100008.61
2022-10-24T06:32:47.006Z,100011.49
2022-10-24T06:35:19.274Z,100015.70
2022-10-24T06:37:50.412Z,100016.07
2022-10-24T06:40:21.762Z,100015.00
2022-10-24T06:42:53.135Z,100020.73
2022-10-24T06:45:24.069Z,100018.33
2022-10-24T06:47:55.141Z,100017.90
2022-10-24T06:50:26.055Z,100018.77
2022-10-24T06:52:56.885Z,100022.92
2022-10-24T06:55:27.542Z,100029.42
2022-10-24T06:57:58.235Z,100030.17
2022-10-24T07:03:04.382Z,100042.15
2022-10-24T07:05:35.005Z,100039.33
2022-10-24T07:08:06.351Z,100036.10
2022-10-24T07:10:37.119Z,100040.63
2022-10-24T07:13:07.697Z,100039.57
2022-10-24T07:15:38.386Z,100032.66
2022-10-24T07:18:14.186Z,100038.73
2022-10-24T07:20:44.832Z,100039.02
2022-10-24T07:23:15.733Z,100040.59
2022-10-24T07:25:47.023Z,100037.13
2022-10-24T07:28:17.760Z,100030.58
2022-10-24T07:30:48.467Z,100029.89
2022-10-24T07:33:19.252Z,100028.19
2022-10-24T07:35:49.854Z,100025.32
2022-10-24T07:38:21.132Z,100024.33
2022-10-24T07:40:52.018Z,100026.08
2022-10-24T07:43:22.753Z,100033.16
2022-10-24T07:45:53.379Z,100034.04
2022-10-24T07:48:23.986Z,100037.88
2022-10-24T07:50:55.064Z,100039.17
2022-10-24T07:53:27.380Z,100035.58
2022-10-24T07:55:56.450Z,100035.62
2022-10-24T07:58:27.239Z,100034.79
2022-10-24T08:01:03.656Z,100030.80
2022-10-24T08:03:34.358Z,100025.09
2022-10-24T08:06:08.180Z,100022.20
2022-10-24T08:08:39.975Z,100021.09
2022-10-24T08:11:12.935Z,100021.11
2022-10-24T08:13:44.854Z,100026.34
2022-10-24T08:16:17.780Z,100027.58
2022-10-24T08:18:49.212Z,100028.95
2022-10-24T08:21:21.672Z,100026.88
2022-10-24T08:23:54.982Z,100022.81
2022-10-24T08:26:27.056Z,100022.87
2022-10-24T08:28:58.303Z,100033.23
2022-10-24T08:31:29.111Z,100029.15
2022-10-24T08:33:59.865Z,100031.97
2022-10-24T08:36:32.294Z,100029.27
2022-10-24T08:39:03.745Z,100032.05
2022-10-24T08:41:38.001Z,100032.70
2022-10-24T08:44:15.399Z,100031.48
2022-10-24T08:46:51.702Z,100033.16
2022-10-24T08:49:29.647Z,100033.67
2022-10-24T08:52:05.017Z,100033.91
2022-10-24T08:54:39.199Z,100032.00
2022-10-24T08:57:18.563Z,100023.96
2022-10-24T08:59:50.065Z,100020.56
2022-10-24T09:02:25.311Z,100021.46
2022-10-24T09:04:59.810Z,100020.59
2022-10-24T09:07:30.872Z,100020.13
2022-10-24T09:10:07.750Z,100015.03
2022-10-24T09:12:40.115Z,100010.91
2022-10-24T09:15:16.147Z,100011.11
2022-10-24T09:17:48.640Z,100010.98
2022-10-24T09:20:29.037Z,100006.41
2022-10-24T09:23:01.932Z,100004.46
2022-10-24T09:25:36.373Z,100008.11
2022-10-24T09:28:08.176Z,100011.21
2022-10-24T09:30:39.262Z,100013.91
2022-10-24T09:33:23.066Z,100020.75
2022-10-24T09:35:55.366Z,100014.95
2022-10-24T09:38:33.594Z,100015.07
2022-10-24T09:41:08.343Z,100010.05
2022-10-24T09:43:48.048Z,100005.72
2022-10-24T09:46:20.587Z,100005.88
2022-10-24T09:48:56.429Z,100003.31
2022-10-24T09:51:35.721Z,100006.14
2022-10-24T09:54:27.210Z,100009.79
2022-10-24T09:57:00.325Z,100013.91
2022-10-24T09:59:42.745Z,100012.45
2022-10-24T10:02:28.606Z,100006.32
2022-10-24T10:05:22.523Z,100007.86
2022-10-24T10:07:54.812Z,100015.09
2022-10-24T10:10:37.958Z,100010.52
2022-10-24T10:13:24.657Z,100008.27
2022-10-24T10:15:59.500Z,99999.80
2022-10-24T10:18:35.588Z,99997.98
2022-10-24T10:21:11.555Z,99993.09
2022-10-24T10:23:44.878Z,99990.15
2022-10-24T10:26:29.083Z,99982.92
2022-10-24T10:29:02.811Z,99979.73
2022-10-24T10:31:43.763Z,99978.27
2022-10-24T10:34:32.413Z,99973.14
2022-10-24T10:37:28.539Z,99977.70
2022-10-24T10:40:23.844Z,99980.29
2022-10-24T10:43:15.756Z,99986.20
2022-10-24T10:45:50.229Z,99981.81
2022-10-24T10:48:38.999Z,99982.26
2022-10-24T10:51:18.116Z,99975.46
2022-10-24T10:53:56.756Z,99973.94
2022-10-24T10:56:36.611Z,99977.77
2022-10-24T10:59:30.045Z,99982.64
2022-10-24T11:02:13.962Z,99966.81
2022-10-24T11:04:50.356Z,99960.81
2022-10-24T11:07:30.812Z,99954.13
2022-10-24T11:10:03.903Z,99947.66
2022-10-24T11:12:39.235Z,99936.44
2022-10-24T11:18:02.248Z,99947.90
2022-10-24T11:29:08.359Z,99964.94
2022-10-24T11:31:41.758Z,99963.09
2022-10-24T11:34:18.241Z,99955.98
2022-10-24T11:36:55.973Z,99956.13
2022-10-24T11:39:30.328Z,99966.95
2022-10-24T11:42:06.865Z,99955.20
2022-10-24T11:44:46.788Z,99948.70
2022-10-24T11:47:44.164Z,99941.39
2022-10-24T11:50:23.230Z,99940.27
2022-10-24T11:53:03.118Z,99945.42
2022-10-24T11:55:39.067Z,99950.33
2022-10-24T11:58:14.821Z,99951.52
2022-10-24T12:01:08.845Z,99950.90
2022-10-24T12:04:05.483Z,99959.53
2022-10-24T12:07:11.318Z,99966.61
2022-10-24T12:09:59.492Z,99958.87
2022-10-24T12:12:53.325Z,99950.77
2022-10-24T12:15:41.437Z,99939.48
2022-10-24T12:18:24.202Z,99930.90
2022-10-24T12:20:57.781Z,99942.83
2022-10-24T12:23:29.788Z,99968.18
2022-10-24T12:26:09.990Z,99971.02
2022-10-24T12:28:41.074Z,99979.86
2022-10-24T12:31:26.142Z,99978.22
2022-10-24T12:34:32.872Z,99977.07
2022-10-24T12:37:11.897Z,99970.52
2022-10-24T12:39:48.666Z,99964.95
2022-10-24T12:42:56.784Z,99963.06
2022-10-24T12:45:32.047Z,99957.73
2022-10-24T12:48:31.530Z,99958.32
2022-10-24T12:51:29.167Z,99961.08
2022-10-24T12:54:15.593Z,99954.04
2022-10-24T12:57:32.483Z,99948.90
2022-10-24T13:00:05.697Z,99945.23
2022-10-24T13:03:05.020Z,99943.44
2022-10-24T13:05:55.734Z,99936.73
2022-10-24T13:08:45.011Z,99934.86
2022-10-24T13:11:33.053Z,99928.64
2022-10-24T13:14:23.780Z,99925.20
2022-10-24T13:17:05.013Z,99923.52
2022-10-24T13:19:36.701Z,99926.98
2022-10-24T13:22:27.285Z,99925.08
2022-10-24T13:24:58.221Z,99930.98
2022-10-24T13:27:33.900Z,99932.77
2022-10-24T13:30:34.902Z,99933.39
2022-10-24T13:33:49.672Z,99935.48
2022-10-24T13:36:28.127Z,99944.72
2022-10-24T13:39:01.819Z,99946.95
2022-10-24T13:41:36.124Z,99948.59
2022-10-24T13:44:11.255Z,99950.02
2022-10-24T13:46:47.992Z,99951.23
2022-10-24T13:49:28.798Z,99960.36
2022-10-24T13:52:04.126Z,99971.58
2022-10-24T13:54:38.291Z,99975.51
2022-10-24T13:57:29.971Z,99981.68
2022-10-24T14:00:03.329Z,99980.27
2022-10-24T14:02:54.714Z,99983.06
2022-10-24T14:05:33.706Z,99982.21
2022-10-24T14:08:06.700Z,99981.20
2022-10-24T14:10:38.687Z,99975.14
2022-10-24T14:13:14.509Z,99968.70
2022-10-24T14:16:22.689Z,99969.23
2022-10-24T14:18:51.745Z,99966.36
2022-10-24T14:21:23.923Z,99965.44
2022-10-24T14:24:00.754Z,99966.99
2022-10-24T14:26:32.657Z,99970.17
2022-10-24T14:29:03.778Z,99973.67
2022-10-24T14:31:42.287Z,99971.63
2022-10-24T14:34:22.870Z,99970.55
2022-10-24T14:36:55.876Z,99967.15
2022-10-24T14:39:26.865Z,99962.61
2022-10-24T14:41:59.650Z,99973.89
2022-10-24T14:44:32.974Z,99979.90
2022-10-24T14:47:19.595Z,99980.33
2022-10-24T14:49:51.032Z,99980.02
2022-10-24T14:52:26.255Z,99981.31
2022-10-24T14:55:03.102Z,99985.05
2022-10-24T14:57:35.576Z,99984.33
2022-10-24T15:00:19.812Z,99983.21
2022-10-24T15:02:50.824Z,99994.79
2022-10-24T15:05:34.402Z,99991.12
2022-10-24T15:08:25.804Z,99991.46
2022-10-24T15:11:17.307Z,99992.16
2022-10-24T15:14:05.762Z,99987.23
2022-10-24T15:16:42.206Z,99991.83
2022-10-24T15:19:19.276Z,99999.26
2022-10-24T15:21:50.908Z,100003.98
2022-10-24T15:24:26.131Z,100002.21
2022-10-24T15:27:12.408Z,100003.33
2022-10-24T15:29:43.619Z,100006.83
2022-10-24T15:32:14.317Z,100010.90
2022-10-24T15:34:44.975Z,100013.84
2022-10-24T15:37:21.765Z,100014.36
2022-10-24T15:39:53.894Z,100016.94
2022-10-24T15:42:24.966Z,100022.94
2022-10-24T15:44:55.716Z,100021.98
2022-10-24T15:47:26.382Z,100024.36
2022-10-24T15:49:57.117Z,100019.14
2022-10-24T15:52:28.064Z,100026.65
2022-10-24T15:55:00.458Z,100031.99
2022-10-24T15:57:29.620Z,100031.27
2022-10-24T16:00:00.372Z,100036.77
2022-10-24T16:02:31.316Z,100035.72
2022-10-24T16:05:02.096Z,100034.39
2022-10-24T16:07:32.856Z,100033.50
2022-10-24T16:10:03.693Z,100035.38
2022-10-24T16:12:34.483Z,100033.82
2022-10-24T16:15:05.877Z,100028.48
2022-10-24T16:17:36.567Z,100025.20
2022-10-24T16:20:09.407Z,100028.27
2022-10-24T16:22:40.283Z,100031.23
2022-10-24T16:25:14.605Z,100038.55
2022-10-24T16:27:45.685Z,100034.70
2022-10-24T16:30:18.424Z,100032.56
2022-10-24T16:32:49.461Z,100036.73
2022-10-24T16:35:23.832Z,100038.91
2022-10-24T16:37:55.738Z,100027.49
2022-10-24T16:40:27.606Z,100030.64
2022-10-24T16:43:00.121Z,100031.56
2022-10-24T16:45:30.827Z,100032.23
2022-10-24T16:48:01.533Z,100027.27
2022-10-24T16:50:32.904Z,100035.05
2022-10-24T16:53:06.941Z,100040.09
2022-10-24T16:55:37.772Z,100038.42
2022-10-24T16:58:08.402Z,100042.15
2022-10-24T17:00:39.292Z,100038.21
2022-10-24T17:03:10.837Z,100036.52
2022-10-24T17:05:43.998Z,100029.55
2022-10-24T17:08:14.777Z,100027.73
2022-10-24T17:10:45.472Z,100028.21
2022-10-24T17:13:16.105Z,100025.15
2022-10-24T17:15:46.899Z,100030.98
2022-10-24T17:18:19.963Z,100027.70
2022-10-24T17:20:50.878Z,100033.62
2022-10-24T17:23:23.047Z,100034.08
2022-10-24T17:25:54.388Z,100035.19
2022-10-24T17:28:29.572Z,100038.52
2022-10-24T17:31:03.566Z,100037.90
2022-10-24T17:33:37.147Z,100030.50
2022-10-24T17:36:17.654Z,100031.55
2022-10-24T17:38:56.558Z,100029.42
2022-10-24T17:41:30.824Z,100026.21
2022-10-24T17:44:03.181Z,100028.42
2022-10-24T17:46:34.137Z,100032.75
2022-10-24T17:49:04.751Z,100028.04
2022-10-24T17:51:37.576Z,100028.47
2022-10-24T17:54:09.453Z,100023.44
2022-10-24T17:56:41.282Z,100027.64
2022-10-24T17:59:12.214Z,100029.48
2022-10-24T18:01:43.301Z,100031.14
2022-10-24T18:04:14.637Z,100035.08
2022-10-24T18:06:45.373Z,100037.29
2022-10-24T18:09:19.122Z,100048.10
2022-10-24T18:11:50.242Z,100050.00
2022-10-24T18:14:20.977Z,100057.48
2022-10-24T18:16:51.804Z,100059.00
2022-10-24T18:19:22.617Z,100056.48
2022-10-24T18:21:53.454Z,100049.95
2022-10-24T18:24:24.127Z,100047.16
2022-10-24T18:26:54.714Z,100047.53
2022-10-24T18:29:25.534Z,100044.07
2022-10-24T18:31:59.479Z,100045.69
2022-10-24T18:34:30.313Z,100051.02
2022-10-24T18:37:03.494Z,100056.16
2022-10-24T18:39:34.178Z,100060.70
2022-10-24T18:42:16.866Z,100066.23
2022-10-24T18:44:51.046Z,100067.63
2022-10-24T18:47:25.673Z,100066.55
2022-10-24T18:49:57.948Z,100067.35
2022-10-24T18:52:40.837Z,100073.64
2022-10-24T18:55:18.177Z,100067.88
2022-10-24T18:57:50.331Z,100071.63
2022-10-24T19:00:24.546Z,100067.73
2022-10-24T19:03:10.678Z,100059.78
2022-10-24T19:05:47.965Z,100064.96
2022-10-24T19:08:26.261Z,100061.33
2022-10-24T19:10:58.190Z,100060.71
2022-10-24T19:13:30.523Z,100057.18
2022-10-24T19:16:04.002Z,100057.14
2022-10-24T19:18:37.320Z,100061.13
2022-10-24T19:21:08.678Z,100063.44
2022-10-24T19:23:39.652Z,100064.98
2022-10-24T19:26:10.675Z,100065.86
2022-10-24T19:28:41.831Z,100066.52
2022-10-24T19:31:15.091Z,100069.55
2022-10-24T19:33:45.861Z,100065.29
2022-10-24T19:36:19.062Z,100065.84
2022-10-24T19:38:55.009Z,100065.25
2022-10-24T19:41:25.815Z,100067.64
2022-10-24T19:43:56.910Z,100071.70
2022-10-24T19:46:28.093Z,100074.46
2022-10-24T19:49:01.928Z,100069.71
2022-10-24T19:51:32.678Z,100072.17
2022-10-24T19:54:03.508Z,100072.36
2022-10-24T19:56:34.572Z,100074.36
2022-10-24T19:59:07.017Z,100066.46
2022-10-24T20:01:37.706Z,100074.10
2022-10-24T20:04:08.722Z,100075.18
2022-10-24T20:06:39.605Z,100074.44
2022-10-24T20:09:11.498Z,100080.41
2022-10-24T20:11:42.391Z,100075.11
2022-10-24T20:14:13.262Z,100077.11
2022-10-24T20:16:44.029Z,100081.05
2022-10-24T20:19:14.823Z,100078.42
2022-10-24T20:21:45.554Z,100079.38
2022-10-24T20:24:16.264Z,100081.52
2022-10-24T20:26:47.055Z,100083.23
2022-10-24T20:29:17.804Z,100094.67
2022-10-24T20:31:50.211Z,100097.13
2022-10-24T20:34:19.274Z,100090.88
2022-10-24T20:36:50.087Z,100093.38
2022-10-24T20:39:21.463Z,100091.89
2022-10-24T20:41:54.166Z,100095.21
2022-10-24T20:44:25.356Z,100094.59
2022-10-24T20:46:59.057Z,100094.75
2022-10-24T20:49:29.869Z,100096.48
2022-10-24T20:52:00.869Z,100105.36
2022-10-24T20:54:31.620Z,100104.03
2022-10-24T20:57:02.404Z,100105.01
2022-10-24T20:59:33.029Z,100101.66
2022-10-24T21:02:03.968Z,100105.73
2022-10-24T21:04:34.701Z,100105.89
2022-10-24T21:07:05.551Z,100107.05
2022-10-24T21:09:36.214Z,100107.41
2022-10-24T21:12:07.594Z,100109.13
2022-10-24T21:14:38.184Z,100110.59
2022-10-24T21:17:32.830Z,100114.02
2022-10-24T21:20:04.587Z,100109.42
2022-10-24T21:22:35.276Z,100112.04
2022-10-24T21:25:06.602Z,100107.73
2022-10-24T21:27:37.357Z,100103.55
2022-10-24T21:30:14.390Z,100106.73
2022-10-24T21:32:45.655Z,100107.76
2022-10-24T21:35:16.596Z,100102.80
2022-10-24T21:37:47.582Z,100101.88
2022-10-24T21:40:19.017Z,100099.76
2022-10-24T21:42:50.078Z,100102.94
2022-10-24T21:45:21.055Z,100104.94
2022-10-24T21:47:51.729Z,100108.09
2022-10-24T21:50:22.529Z,100113.06
2022-10-24T21:52:53.199Z,100112.39
2022-10-24T21:55:23.901Z,100111.80
2022-10-24T21:57:54.668Z,100113.95
2022-10-24T22:00:25.479Z,100115.89
2022-10-24T22:02:56.193Z,100120.58
2022-10-24T22:05:27.164Z,100124.05
2022-10-24T22:07:57.878Z,100123.95
2022-10-24T22:10:28.527Z,100125.04
2022-10-24T22:12:59.158Z,100123.83
2022-10-24T22:15:29.810Z,100122.16
2022-10-24T22:18:00.450Z,100118.86
2022-10-24T22:20:31.170Z,100121.32
2022-10-24T22:23:01.893Z,100126.46
2022-10-24T22:25:32.535Z,100131.79
2022-10-24T22:28:03.190Z,100127.89
2022-10-24T22:30:34.531Z,100128.27
2022-10-24T22:33:06.364Z,100125.90
2022-10-24T22:35:38.954Z,100123.42
2022-10-24T22:38:11.629Z,100126.71
2022-10-24T22:40:43.910Z,100129.84
2022-10-24T22:43:15.756Z,100131.76
2022-10-24T22:45:56.659Z,100133.30
2022-10-24T22:48:30.979Z,100140.63
2022-10-24T22:51:02.193Z,100144.67
2022-10-24T22:53:34.445Z,100139.30
2022-10-24T22:56:22.332Z,100134.30
2022-10-24T22:58:54.483Z,100131.38
2022-10-24T23:01:36.114Z,100136.19
2022-10-24T23:04:20.329Z,100134.24
2022-10-24T23:06:54.965Z,100140.63
2022-10-24T23:09:25.982Z,100148.69
2022-10-24T23:11:58.132Z,100150.42
2022-10-24T23:14:30.228Z,100149.03
2022-10-24T23:17:02.018Z,100150.65
2022-10-24T23:19:34.680Z,100156.19
2022-10-24T23:22:16.472Z,100161.05
2022-10-24T23:24:48.357Z,100169.89
2022-10-24T23:27:31.006Z,100174.27
2022-10-24T23:30:03.060Z,100180.63
2022-10-24T23:32:38.742Z,100184.98
2022-10-24T23:35:13.184Z,100183.27
2022-10-24T23:37:46.591Z,100188.82
2022-10-24T23:40:31.288Z,100188.52
2022-10-24T23:43:04.173Z,100178.87
2022-10-24T23:45:44.553Z,100180.63
2022-10-24T23:48:30.155Z,100181.77
2022-10-24T23:51:09.004Z,100183.52
2022-10-24T23:53:50.385Z,100178.60
2022-10-24T23:56:23.820Z,100187.13
2022-10-24T23:58:54.592Z,100186.09
